KVKS/VKS METAR and TAF weather

Enter ICAO airport designator
Station Type Date Time Source
KVKS METAR 2019/04/20 22:55 UTC NOAA

KVKS 202255Z AUTO 29005KT 10SM CLR 22/01 A2999 RMK A01


Station Type Date Time Source
KVKS Decoded METAR 2019/04/20 22:55 UTC NOAA

Vicksburg Municipal, MS, United States (KVKS) 32-14N 090-56W
Apr 20, 2019 - 06:55 PM EDT / 2019.04.20 2255 UTC
Wind: from the WNW (290 degrees) at 6 MPH (5 KT):0
Visibility: 10 mile(s):0
Sky conditions: clear
Temperature: 71 F (22 C)
Dew Point: 33 F (1 C)
Relative Humidity: 24%
Pressure (altimeter): 29.99 in. Hg (1015 hPa)
ob: KVKS 202255Z AUTO 29005KT 10SM CLR 22/01 A2999 RMK A01
cycle: 23

Station Type Date Time Source
KVKS TAF UTC NOAA

Error!

Example: see airport list